sensor_id;sensor_type;location;lat;lon;timestamp;P1;durP1;ratioP1;P2;durP2;ratioP2
5414;SDS011;2730;51.512;7.504;2023-08-31T00:02:23;4.60;;;2.85;;
5414;SDS011;2730;51.512;7.504;2023-08-31T00:04:51;6.28;;;2.55;;
5414;SDS011;2730;51.512;7.504;2023-08-31T00:07:18;4.03;;;2.75;;
5414;SDS011;2730;51.512;7.504;2023-08-31T00:09:45;5.03;;;2.60;;
5414;SDS011;2730;51.512;7.504;2023-08-31T00:12:12;3.95;;;3.25;;
5414;SDS011;2730;51.512;7.504;2023-08-31T00:14:39;3.05;;;2.65;;
5414;SDS011;2730;51.512;7.504;2023-08-31T00:17:06;3.40;;;3.10;;
5414;SDS011;2730;51.512;7.504;2023-08-31T00:19:34;5.20;;;3.42;;
5414;SDS011;2730;51.512;7.504;2023-08-31T00:22:01;4.55;;;2.20;;
5414;SDS011;2730;51.512;7.504;2023-08-31T00:24:29;2.80;;;2.60;;
5414;SDS011;2730;51.512;7.504;2023-08-31T00:26:58;6.85;;;2.20;;
5414;SDS011;2730;51.512;7.504;2023-08-31T00:29:25;3.38;;;2.15;;
5414;SDS011;2730;51.512;7.504;2023-08-31T00:31:52;2.92;;;2.65;;
5414;SDS011;2730;51.512;7.504;2023-08-31T00:34:19;3.47;;;2.28;;
5414;SDS011;2730;51.512;7.504;2023-08-31T00:36:47;2.53;;;2.33;;
5414;SDS011;2730;51.512;7.504;2023-08-31T00:39:14;12.25;;;2.72;;
5414;SDS011;2730;51.512;7.504;2023-08-31T00:41:42;3.20;;;2.30;;
5414;SDS011;2730;51.512;7.504;2023-08-31T00:44:10;3.38;;;2.85;;
5414;SDS011;2730;51.512;7.504;2023-08-31T00:46:37;5.70;;;2.92;;
5414;SDS011;2730;51.512;7.504;2023-08-31T00:49:04;7.38;;;2.85;;
5414;SDS011;2730;51.512;7.504;2023-08-31T00:51:31;5.13;;;1.95;;
5414;SDS011;2730;51.512;7.504;2023-08-31T00:54:00;2.13;;;2.03;;
5414;SDS011;2730;51.512;7.504;2023-08-31T00:56:27;3.28;;;2.00;;
5414;SDS011;2730;51.512;7.504;2023-08-31T00:58:54;2.33;;;2.13;;
5414;SDS011;2730;51.512;7.504;2023-08-31T01:01:22;2.85;;;2.65;;
5414;SDS011;2730;51.512;7.504;2023-08-31T01:03:56;3.88;;;2.45;;
5414;SDS011;2730;51.512;7.504;2023-08-31T01:06:32;2.58;;;2.38;;
5414;SDS011;2730;51.512;7.504;2023-08-31T01:09:09;4.55;;;2.63;;
5414;SDS011;2730;51.512;7.504;2023-08-31T01:11:44;7.47;;;2.25;;
5414;SDS011;2730;51.512;7.504;2023-08-31T01:14:17;4.32;;;2.10;;
5414;SDS011;2730;51.512;7.504;2023-08-31T01:16:47;2.97;;;2.20;;
5414;SDS011;2730;51.512;7.504;2023-08-31T01:19:17;4.28;;;2.30;;
5414;SDS011;2730;51.512;7.504;2023-08-31T01:21:57;6.80;;;4.95;;
5414;SDS011;2730;51.512;7.504;2023-08-31T01:24:28;4.68;;;2.67;;
5414;SDS011;2730;51.512;7.504;2023-08-31T01:26:56;8.35;;;2.25;;
5414;SDS011;2730;51.512;7.504;2023-08-31T01:29:23;4.07;;;2.13;;
5414;SDS011;2730;51.512;7.504;2023-08-31T01:31:50;2.80;;;2.17;;
5414;SDS011;2730;51.512;7.504;2023-08-31T01:34:17;8.20;;;2.70;;
5414;SDS011;2730;51.512;7.504;2023-08-31T01:36:46;4.10;;;3.33;;
5414;SDS011;2730;51.512;7.504;2023-08-31T01:39:19;3.65;;;3.00;;
5414;SDS011;2730;51.512;7.504;2023-08-31T01:41:53;5.35;;;2.70;;
5414;SDS011;2730;51.512;7.504;2023-08-31T01:44:23;9.43;;;2.50;;
5414;SDS011;2730;51.512;7.504;2023-08-31T01:46:51;4.97;;;2.28;;
5414;SDS011;2730;51.512;7.504;2023-08-31T01:49:19;3.90;;;2.70;;
5414;SDS011;2730;51.512;7.504;2023-08-31T01:51:46;6.20;;;2.97;;
5414;SDS011;2730;51.512;7.504;2023-08-31T01:54:12;8.75;;;2.40;;
5414;SDS011;2730;51.512;7.504;2023-08-31T01:56:39;9.85;;;2.55;;
5414;SDS011;2730;51.512;7.504;2023-08-31T01:59:07;14.48;;;3.05;;
5414;SDS011;2730;51.512;7.504;2023-08-31T02:01:34;3.03;;;2.83;;
5414;SDS011;2730;51.512;7.504;2023-08-31T02:04:01;9.30;;;3.58;;
5414;SDS011;2730;51.512;7.504;2023-08-31T02:06:28;11.85;;;2.90;;
5414;SDS011;2730;51.512;7.504;2023-08-31T02:08:54;6.30;;;3.20;;
5414;SDS011;2730;51.512;7.504;2023-08-31T02:11:21;5.88;;;2.65;;
5414;SDS011;2730;51.512;7.504;2023-08-31T02:13:48;6.75;;;2.67;;
5414;SDS011;2730;51.512;7.504;2023-08-31T02:16:16;3.83;;;2.75;;
5414;SDS011;2730;51.512;7.504;2023-08-31T02:18:43;3.85;;;2.85;;
5414;SDS011;2730;51.512;7.504;2023-08-31T02:21:09;3.92;;;3.30;;
5414;SDS011;2730;51.512;7.504;2023-08-31T02:23:36;6.35;;;2.80;;
5414;SDS011;2730;51.512;7.504;2023-08-31T02:26:03;6.28;;;3.90;;
5414;SDS011;2730;51.512;7.504;2023-08-31T02:28:30;2.97;;;2.67;;
5414;SDS011;2730;51.512;7.504;2023-08-31T02:30:57;4.97;;;3.03;;
5414;SDS011;2730;51.512;7.504;2023-08-31T02:33:26;4.53;;;2.83;;
5414;SDS011;2730;51.512;7.504;2023-08-31T02:35:53;3.50;;;3.08;;
5414;SDS011;2730;51.512;7.504;2023-08-31T02:38:20;9.40;;;5.47;;
5414;SDS011;2730;51.512;7.504;2023-08-31T02:40:47;3.42;;;3.03;;
5414;SDS011;2730;51.512;7.504;2023-08-31T02:43:14;6.88;;;4.25;;
5414;SDS011;2730;51.512;7.504;2023-08-31T02:45:41;8.85;;;3.75;;
5414;SDS011;2730;51.512;7.504;2023-08-31T02:48:08;10.20;;;3.60;;
5414;SDS011;2730;51.512;7.504;2023-08-31T02:50:36;4.32;;;3.50;;
5414;SDS011;2730;51.512;7.504;2023-08-31T02:53:03;7.38;;;3.90;;
5414;SDS011;2730;51.512;7.504;2023-08-31T02:55:31;5.53;;;2.80;;
5414;SDS011;2730;51.512;7.504;2023-08-31T02:57:58;6.18;;;3.75;;
5414;SDS011;2730;51.512;7.504;2023-08-31T03:00:25;7.75;;;3.35;;
5414;SDS011;2730;51.512;7.504;2023-08-31T03:02:53;4.28;;;3.67;;
5414;SDS011;2730;51.512;7.504;2023-08-31T03:05:19;4.90;;;3.15;;
5414;SDS011;2730;51.512;7.504;2023-08-31T03:07:48;3.83;;;3.47;;
5414;SDS011;2730;51.512;7.504;2023-08-31T03:10:15;7.93;;;3.38;;
5414;SDS011;2730;51.512;7.504;2023-08-31T03:12:42;6.30;;;3.33;;
5414;SDS011;2730;51.512;7.504;2023-08-31T03:15:08;4.45;;;2.97;;
5414;SDS011;2730;51.512;7.504;2023-08-31T03:17:35;6.38;;;3.78;;
5414;SDS011;2730;51.512;7.504;2023-08-31T03:20:02;7.05;;;4.20;;
5414;SDS011;2730;51.512;7.504;2023-08-31T03:22:31;10.88;;;4.45;;
5414;SDS011;2730;51.512;7.504;2023-08-31T03:24:59;5.50;;;4.03;;
5414;SDS011;2730;51.512;7.504;2023-08-31T03:27:26;14.98;;;4.85;;
5414;SDS011;2730;51.512;7.504;2023-08-31T03:29:52;7.50;;;4.32;;
5414;SDS011;2730;51.512;7.504;2023-08-31T03:32:19;12.48;;;4.82;;
5414;SDS011;2730;51.512;7.504;2023-08-31T03:34:46;11.85;;;4.57;;
5414;SDS011;2730;51.512;7.504;2023-08-31T03:37:13;6.30;;;4.20;;
5414;SDS011;2730;51.512;7.504;2023-08-31T03:39:40;8.05;;;4.45;;
5414;SDS011;2730;51.512;7.504;2023-08-31T03:42:09;12.02;;;4.32;;
5414;SDS011;2730;51.512;7.504;2023-08-31T03:44:36;6.78;;;4.07;;
5414;SDS011;2730;51.512;7.504;2023-08-31T03:47:03;9.10;;;5.10;;
5414;SDS011;2730;51.512;7.504;2023-08-31T03:49:30;7.03;;;4.57;;
5414;SDS011;2730;51.512;7.504;2023-08-31T03:51:58;9.70;;;4.40;;
5414;SDS011;2730;51.512;7.504;2023-08-31T03:54:25;9.02;;;4.65;;
5414;SDS011;2730;51.512;7.504;2023-08-31T03:56:52;9.35;;;5.47;;
5414;SDS011;2730;51.512;7.504;2023-08-31T03:59:20;6.22;;;4.72;;
5414;SDS011;2730;51.512;7.504;2023-08-31T04:01:46;9.07;;;5.90;;
5414;SDS011;2730;51.512;7.504;2023-08-31T04:04:13;12.55;;;5.20;;
5414;SDS011;2730;51.512;7.504;2023-08-31T04:06:40;11.73;;;5.65;;
5414;SDS011;2730;51.512;7.504;2023-08-31T04:09:07;12.07;;;5.68;;
5414;SDS011;2730;51.512;7.504;2023-08-31T04:11:33;8.43;;;5.80;;
5414;SDS011;2730;51.512;7.504;2023-08-31T04:14:00;7.53;;;5.65;;
5414;SDS011;2730;51.512;7.504;2023-08-31T04:16:28;12.45;;;7.10;;
5414;SDS011;2730;51.512;7.504;2023-08-31T04:18:55;12.48;;;7.05;;
5414;SDS011;2730;51.512;7.504;2023-08-31T04:21:22;14.80;;;6.57;;
5414;SDS011;2730;51.512;7.504;2023-08-31T04:23:49;13.88;;;7.00;;
5414;SDS011;2730;51.512;7.504;2023-08-31T04:26:16;11.25;;;6.78;;
5414;SDS011;2730;51.512;7.504;2023-08-31T04:28:43;10.68;;;6.53;;
5414;SDS011;2730;51.512;7.504;2023-08-31T04:31:10;7.93;;;6.50;;
5414;SDS011;2730;51.512;7.504;2023-08-31T04:33:38;14.07;;;6.55;;
5414;SDS011;2730;51.512;7.504;2023-08-31T04:36:06;11.00;;;6.85;;
5414;SDS011;2730;51.512;7.504;2023-08-31T04:38:33;11.82;;;7.00;;
5414;SDS011;2730;51.512;7.504;2023-08-31T04:41:01;18.55;;;7.43;;
5414;SDS011;2730;51.512;7.504;2023-08-31T04:43:28;15.60;;;8.45;;
5414;SDS011;2730;51.512;7.504;2023-08-31T04:45:55;14.80;;;8.30;;
5414;SDS011;2730;51.512;7.504;2023-08-31T04:48:22;13.52;;;6.72;;
5414;SDS011;2730;51.512;7.504;2023-08-31T04:50:50;12.15;;;7.05;;
5414;SDS011;2730;51.512;7.504;2023-08-31T04:53:21;20.02;;;8.88;;
5414;SDS011;2730;51.512;7.504;2023-08-31T04:55:48;17.23;;;7.78;;
5414;SDS011;2730;51.512;7.504;2023-08-31T04:58:15;11.68;;;7.43;;
5414;SDS011;2730;51.512;7.504;2023-08-31T05:00:42;10.85;;;7.72;;
5414;SDS011;2730;51.512;7.504;2023-08-31T05:03:09;10.93;;;7.72;;
5414;SDS011;2730;51.512;7.504;2023-08-31T05:05:36;12.68;;;7.88;;
5414;SDS011;2730;51.512;7.504;2023-08-31T05:08:05;13.25;;;7.55;;
5414;SDS011;2730;51.512;7.504;2023-08-31T05:10:34;11.35;;;7.18;;
5414;SDS011;2730;51.512;7.504;2023-08-31T05:13:00;12.60;;;7.50;;
5414;SDS011;2730;51.512;7.504;2023-08-31T05:15:29;17.20;;;8.10;;
5414;SDS011;2730;51.512;7.504;2023-08-31T05:17:56;13.35;;;7.22;;
5414;SDS011;2730;51.512;7.504;2023-08-31T05:20:22;10.93;;;7.55;;
5414;SDS011;2730;51.512;7.504;2023-08-31T05:22:49;18.13;;;7.25;;
5414;SDS011;2730;51.512;7.504;2023-08-31T05:25:18;13.52;;;7.05;;
5414;SDS011;2730;51.512;7.504;2023-08-31T05:27:44;13.05;;;7.97;;
5414;SDS011;2730;51.512;7.504;2023-08-31T05:30:11;16.65;;;8.00;;
5414;SDS011;2730;51.512;7.504;2023-08-31T05:32:38;13.52;;;7.30;;
5414;SDS011;2730;51.512;7.504;2023-08-31T05:35:05;12.65;;;7.68;;
5414;SDS011;2730;51.512;7.504;2023-08-31T05:37:33;13.05;;;8.00;;
5414;SDS011;2730;51.512;7.504;2023-08-31T05:40:00;19.65;;;8.13;;
5414;SDS011;2730;51.512;7.504;2023-08-31T05:42:32;11.35;;;7.55;;
5414;SDS011;2730;51.512;7.504;2023-08-31T05:44:59;14.32;;;7.57;;
5414;SDS011;2730;51.512;7.504;2023-08-31T05:47:26;16.48;;;9.05;;
5414;SDS011;2730;51.512;7.504;2023-08-31T05:49:52;15.57;;;8.02;;
5414;SDS011;2730;51.512;7.504;2023-08-31T05:52:19;16.17;;;7.93;;
5414;SDS011;2730;51.512;7.504;2023-08-31T05:54:46;11.70;;;7.63;;
5414;SDS011;2730;51.512;7.504;2023-08-31T05:57:13;11.15;;;8.57;;
5414;SDS011;2730;51.512;7.504;2023-08-31T05:59:41;12.68;;;8.57;;
5414;SDS011;2730;51.512;7.504;2023-08-31T06:02:07;22.50;;;9.00;;
5414;SDS011;2730;51.512;7.504;2023-08-31T06:04:34;17.05;;;8.98;;
5414;SDS011;2730;51.512;7.504;2023-08-31T06:07:01;13.95;;;7.57;;
5414;SDS011;2730;51.512;7.504;2023-08-31T06:09:28;12.65;;;7.88;;
5414;SDS011;2730;51.512;7.504;2023-08-31T06:11:54;15.13;;;8.43;;
5414;SDS011;2730;51.512;7.504;2023-08-31T06:14:21;13.02;;;6.63;;
5414;SDS011;2730;51.512;7.504;2023-08-31T06:16:49;15.02;;;8.20;;
5414;SDS011;2730;51.512;7.504;2023-08-31T06:19:17;19.25;;;8.68;;
5414;SDS011;2730;51.512;7.504;2023-08-31T06:21:44;13.45;;;8.07;;
5414;SDS011;2730;51.512;7.504;2023-08-31T06:24:11;10.00;;;7.22;;
5414;SDS011;2730;51.512;7.504;2023-08-31T06:26:38;11.20;;;6.72;;
5414;SDS011;2730;51.512;7.504;2023-08-31T06:29:04;9.13;;;7.25;;
5414;SDS011;2730;51.512;7.504;2023-08-31T06:31:33;15.65;;;6.97;;
5414;SDS011;2730;51.512;7.504;2023-08-31T06:34:01;12.73;;;7.22;;
5414;SDS011;2730;51.512;7.504;2023-08-31T06:36:29;15.35;;;6.93;;
5414;SDS011;2730;51.512;7.504;2023-08-31T06:38:56;8.25;;;6.63;;
5414;SDS011;2730;51.512;7.504;2023-08-31T06:41:22;13.48;;;7.95;;
5414;SDS011;2730;51.512;7.504;2023-08-31T06:43:49;10.77;;;6.30;;
5414;SDS011;2730;51.512;7.504;2023-08-31T06:46:16;9.73;;;6.20;;
5414;SDS011;2730;51.512;7.504;2023-08-31T06:48:43;8.32;;;5.93;;
5414;SDS011;2730;51.512;7.504;2023-08-31T06:51:11;14.35;;;5.72;;
5414;SDS011;2730;51.512;7.504;2023-08-31T06:53:38;9.57;;;5.43;;
5414;SDS011;2730;51.512;7.504;2023-08-31T06:56:05;7.07;;;5.20;;
5414;SDS011;2730;51.512;7.504;2023-08-31T06:58:32;5.30;;;4.77;;
5414;SDS011;2730;51.512;7.504;2023-08-31T07:00:59;6.07;;;4.30;;
5414;SDS011;2730;51.512;7.504;2023-08-31T07:03:25;4.17;;;3.77;;
5414;SDS011;2730;51.512;7.504;2023-08-31T07:05:52;6.53;;;3.20;;
5414;SDS011;2730;51.512;7.504;2023-08-31T07:08:20;4.57;;;3.63;;
5414;SDS011;2730;51.512;7.504;2023-08-31T07:10:49;3.33;;;3.03;;
5414;SDS011;2730;51.512;7.504;2023-08-31T07:13:16;3.23;;;3.03;;
5414;SDS011;2730;51.512;7.504;2023-08-31T07:15:42;3.20;;;2.50;;
5414;SDS011;2730;51.512;7.504;2023-08-31T07:18:09;2.87;;;2.57;;
5414;SDS011;2730;51.512;7.504;2023-08-31T07:20:36;2.47;;;2.27;;
5414;SDS011;2730;51.512;7.504;2023-08-31T07:23:03;2.30;;;2.20;;
5414;SDS011;2730;51.512;7.504;2023-08-31T07:25:31;3.10;;;2.83;;
5414;SDS011;2730;51.512;7.504;2023-08-31T07:27:58;2.60;;;2.40;;
5414;SDS011;2730;51.512;7.504;2023-08-31T07:30:24;2.60;;;2.17;;
5414;SDS011;2730;51.512;7.504;2023-08-31T07:32:51;2.17;;;2.00;;
5414;SDS011;2730;51.512;7.504;2023-08-31T07:35:18;2.30;;;2.10;;
5414;SDS011;2730;51.512;7.504;2023-08-31T07:37:45;3.33;;;2.30;;
5414;SDS011;2730;51.512;7.504;2023-08-31T07:40:11;7.93;;;2.27;;
5414;SDS011;2730;51.512;7.504;2023-08-31T07:42:39;2.40;;;2.17;;
5414;SDS011;2730;51.512;7.504;2023-08-31T07:45:07;1.87;;;1.73;;
5414;SDS011;2730;51.512;7.504;2023-08-31T07:47:34;2.20;;;2.00;;
5414;SDS011;2730;51.512;7.504;2023-08-31T07:50:01;2.20;;;2.07;;
5414;SDS011;2730;51.512;7.504;2023-08-31T07:52:28;1.90;;;1.80;;
5414;SDS011;2730;51.512;7.504;2023-08-31T07:54:55;3.77;;;2.03;;
5414;SDS011;2730;51.512;7.504;2023-08-31T07:57:21;3.67;;;1.70;;
5414;SDS011;2730;51.512;7.504;2023-08-31T07:59:50;2.70;;;1.40;;
5414;SDS011;2730;51.512;7.504;2023-08-31T08:02:18;2.23;;;1.90;;
5414;SDS011;2730;51.512;7.504;2023-08-31T08:04:45;1.63;;;1.33;;
5414;SDS011;2730;51.512;7.504;2023-08-31T08:07:12;1.40;;;1.30;;
5414;SDS011;2730;51.512;7.504;2023-08-31T08:09:38;1.30;;;1.20;;
5414;SDS011;2730;51.512;7.504;2023-08-31T08:12:05;4.10;;;1.77;;
5414;SDS011;2730;51.512;7.504;2023-08-31T08:14:33;2.33;;;1.30;;
5414;SDS011;2730;51.512;7.504;2023-08-31T08:17:01;1.40;;;1.30;;
5414;SDS011;2730;51.512;7.504;2023-08-31T08:19:28;2.77;;;1.70;;
5414;SDS011;2730;51.512;7.504;2023-08-31T08:21:55;1.73;;;1.57;;
5414;SDS011;2730;51.512;7.504;2023-08-31T08:24:21;5.60;;;1.40;;
5414;SDS011;2730;51.512;7.504;2023-08-31T08:26:48;1.30;;;1.20;;
5414;SDS011;2730;51.512;7.504;2023-08-31T08:29:15;3.40;;;1.30;;
5414;SDS011;2730;51.512;7.504;2023-08-31T08:31:42;3.10;;;1.43;;
5414;SDS011;2730;51.512;7.504;2023-08-31T08:34:10;2.90;;;1.60;;
5414;SDS011;2730;51.512;7.504;2023-08-31T08:36:37;5.07;;;2.03;;
5414;SDS011;2730;51.512;7.504;2023-08-31T08:39:03;1.63;;;1.30;;
5414;SDS011;2730;51.512;7.504;2023-08-31T08:41:30;1.07;;;0.97;;
5414;SDS011;2730;51.512;7.504;2023-08-31T08:44:01;1.53;;;1.43;;
5414;SDS011;2730;51.512;7.504;2023-08-31T08:46:29;1.50;;;1.40;;
5414;SDS011;2730;51.512;7.504;2023-08-31T08:48:58;1.10;;;1.10;;
5414;SDS011;2730;51.512;7.504;2023-08-31T08:51:28;2.40;;;1.13;;
5414;SDS011;2730;51.512;7.504;2023-08-31T08:53:56;1.73;;;1.27;;
5414;SDS011;2730;51.512;7.504;2023-08-31T08:56:25;1.50;;;1.20;;
5414;SDS011;2730;51.512;7.504;2023-08-31T08:58:52;4.53;;;1.53;;
5414;SDS011;2730;51.512;7.504;2023-08-31T09:01:19;1.43;;;1.33;;
5414;SDS011;2730;51.512;7.504;2023-08-31T09:03:48;1.10;;;1.00;;
5414;SDS011;2730;51.512;7.504;2023-08-31T09:06:14;1.40;;;1.30;;
5414;SDS011;2730;51.512;7.504;2023-08-31T09:08:43;0.90;;;0.90;;
5414;SDS011;2730;51.512;7.504;2023-08-31T09:11:09;4.30;;;1.30;;
5414;SDS011;2730;51.512;7.504;2023-08-31T09:13:47;4.40;;;1.50;;
5414;SDS011;2730;51.512;7.504;2023-08-31T09:16:23;1.37;;;1.10;;
5414;SDS011;2730;51.512;7.504;2023-08-31T09:18:50;1.73;;;1.50;;
5414;SDS011;2730;51.512;7.504;2023-08-31T09:21:17;3.57;;;1.40;;
5414;SDS011;2730;51.512;7.504;2023-08-31T09:23:48;1.40;;;1.30;;
5414;SDS011;2730;51.512;7.504;2023-08-31T09:26:22;3.00;;;1.50;;
5414;SDS011;2730;51.512;7.504;2023-08-31T09:28:49;1.63;;;1.00;;
5414;SDS011;2730;51.512;7.504;2023-08-31T09:31:15;2.77;;;1.43;;
5414;SDS011;2730;51.512;7.504;2023-08-31T09:33:49;1.80;;;1.40;;
5414;SDS011;2730;51.512;7.504;2023-08-31T09:36:16;1.37;;;1.27;;
5414;SDS011;2730;51.512;7.504;2023-08-31T09:38:43;1.33;;;1.23;;
5414;SDS011;2730;51.512;7.504;2023-08-31T09:41:12;1.70;;;1.30;;
5414;SDS011;2730;51.512;7.504;2023-08-31T09:43:40;1.57;;;1.13;;
5414;SDS011;2730;51.512;7.504;2023-08-31T09:46:07;1.43;;;1.23;;
5414;SDS011;2730;51.512;7.504;2023-08-31T09:48:35;1.57;;;1.47;;
5414;SDS011;2730;51.512;7.504;2023-08-31T09:51:04;1.20;;;1.10;;
5414;SDS011;2730;51.512;7.504;2023-08-31T09:53:32;4.23;;;1.57;;
5414;SDS011;2730;51.512;7.504;2023-08-31T09:56:03;1.60;;;1.17;;
5414;SDS011;2730;51.512;7.504;2023-08-31T09:58:32;1.57;;;1.20;;
5414;SDS011;2730;51.512;7.504;2023-08-31T10:01:00;1.83;;;1.10;;
5414;SDS011;2730;51.512;7.504;2023-08-31T10:03:27;2.53;;;1.10;;
5414;SDS011;2730;51.512;7.504;2023-08-31T10:05:54;1.20;;;1.00;;
5414;SDS011;2730;51.512;7.504;2023-08-31T10:08:22;1.80;;;1.70;;
5414;SDS011;2730;51.512;7.504;2023-08-31T10:10:49;2.03;;;1.10;;
5414;SDS011;2730;51.512;7.504;2023-08-31T10:13:16;1.10;;;1.00;;
5414;SDS011;2730;51.512;7.504;2023-08-31T10:15:49;6.63;;;1.10;;
5414;SDS011;2730;51.512;7.504;2023-08-31T10:18:16;2.10;;;1.13;;
5414;SDS011;2730;51.512;7.504;2023-08-31T10:20:43;5.50;;;1.40;;
5414;SDS011;2730;51.512;7.504;2023-08-31T10:23:10;1.00;;;1.00;;
5414;SDS011;2730;51.512;7.504;2023-08-31T10:28:28;2.10;;;1.43;;
5414;SDS011;2730;51.512;7.504;2023-08-31T10:31:03;2.43;;;1.20;;
5414;SDS011;2730;51.512;7.504;2023-08-31T10:33:31;1.70;;;1.30;;
5414;SDS011;2730;51.512;7.504;2023-08-31T10:35:58;3.90;;;1.03;;
5414;SDS011;2730;51.512;7.504;2023-08-31T10:38:25;1.77;;;1.10;;
5414;SDS011;2730;51.512;7.504;2023-08-31T10:41:00;0.93;;;0.93;;
5414;SDS011;2730;51.512;7.504;2023-08-31T10:43:45;1.10;;;1.00;;
5414;SDS011;2730;51.512;7.504;2023-08-31T10:49:00;1.33;;;1.23;;
5414;SDS011;2730;51.512;7.504;2023-08-31T10:51:39;1.40;;;1.30;;
5414;SDS011;2730;51.512;7.504;2023-08-31T10:54:08;1.37;;;1.10;;
5414;SDS011;2730;51.512;7.504;2023-08-31T10:57:01;1.50;;;1.10;;
5414;SDS011;2730;51.512;7.504;2023-08-31T10:59:44;1.37;;;1.00;;
5414;SDS011;2730;51.512;7.504;2023-08-31T11:02:29;2.07;;;1.00;;
5414;SDS011;2730;51.512;7.504;2023-08-31T11:05:00;2.90;;;1.17;;
5414;SDS011;2730;51.512;7.504;2023-08-31T11:07:29;1.30;;;1.20;;
5414;SDS011;2730;51.512;7.504;2023-08-31T11:10:06;1.40;;;1.20;;
5414;SDS011;2730;51.512;7.504;2023-08-31T11:12:34;2.57;;;1.17;;
5414;SDS011;2730;51.512;7.504;2023-08-31T11:15:01;1.77;;;1.10;;
5414;SDS011;2730;51.512;7.504;2023-08-31T11:17:30;1.27;;;0.87;;
5414;SDS011;2730;51.512;7.504;2023-08-31T11:19:58;1.90;;;1.43;;
5414;SDS011;2730;51.512;7.504;2023-08-31T11:22:25;2.20;;;1.10;;
5414;SDS011;2730;51.512;7.504;2023-08-31T11:24:52;3.73;;;1.10;;
5414;SDS011;2730;51.512;7.504;2023-08-31T11:27:19;1.57;;;1.23;;
5414;SDS011;2730;51.512;7.504;2023-08-31T11:29:46;1.30;;;1.20;;
5414;SDS011;2730;51.512;7.504;2023-08-31T11:32:13;1.87;;;1.10;;
5414;SDS011;2730;51.512;7.504;2023-08-31T11:34:42;2.47;;;1.37;;
5414;SDS011;2730;51.512;7.504;2023-08-31T11:37:11;1.10;;;1.00;;
5414;SDS011;2730;51.512;7.504;2023-08-31T11:39:41;1.77;;;1.10;;
5414;SDS011;2730;51.512;7.504;2023-08-31T11:42:08;1.33;;;0.90;;
5414;SDS011;2730;51.512;7.504;2023-08-31T11:44:35;2.90;;;1.17;;
5414;SDS011;2730;51.512;7.504;2023-08-31T11:47:02;2.57;;;1.27;;
5414;SDS011;2730;51.512;7.504;2023-08-31T11:49:29;5.20;;;1.20;;
5414;SDS011;2730;51.512;7.504;2023-08-31T11:51:57;2.28;;;1.10;;
5414;SDS011;2730;51.512;7.504;2023-08-31T11:54:25;2.17;;;1.30;;
5414;SDS011;2730;51.512;7.504;2023-08-31T11:56:52;2.63;;;1.10;;
5414;SDS011;2730;51.512;7.504;2023-08-31T11:59:18;1.33;;;1.20;;
5414;SDS011;2730;51.512;7.504;2023-08-31T12:01:46;4.50;;;1.73;;
5414;SDS011;2730;51.512;7.504;2023-08-31T12:04:15;1.67;;;1.10;;
5414;SDS011;2730;51.512;7.504;2023-08-31T12:06:45;1.33;;;0.93;;
5414;SDS011;2730;51.512;7.504;2023-08-31T12:09:14;2.50;;;1.30;;
5414;SDS011;2730;51.512;7.504;2023-08-31T12:11:41;2.07;;;1.87;;
5414;SDS011;2730;51.512;7.504;2023-08-31T12:14:18;4.50;;;1.93;;
5414;SDS011;2730;51.512;7.504;2023-08-31T12:16:46;1.50;;;1.37;;
5414;SDS011;2730;51.512;7.504;2023-08-31T12:19:13;1.60;;;1.03;;
5414;SDS011;2730;51.512;7.504;2023-08-31T12:21:41;2.20;;;1.37;;
5414;SDS011;2730;51.512;7.504;2023-08-31T12:24:09;2.80;;;1.07;;
5414;SDS011;2730;51.512;7.504;2023-08-31T12:26:37;4.60;;;1.47;;
5414;SDS011;2730;51.512;7.504;2023-08-31T12:29:04;4.80;;;1.10;;
5414;SDS011;2730;51.512;7.504;2023-08-31T12:31:32;1.50;;;1.20;;
5414;SDS011;2730;51.512;7.504;2023-08-31T12:33:59;2.70;;;1.27;;
5414;SDS011;2730;51.512;7.504;2023-08-31T12:36:29;1.80;;;1.30;;
5414;SDS011;2730;51.512;7.504;2023-08-31T12:38:56;1.00;;;1.00;;
5414;SDS011;2730;51.512;7.504;2023-08-31T12:41:26;1.10;;;1.00;;
5414;SDS011;2730;51.512;7.504;2023-08-31T12:43:54;1.10;;;1.00;;
5414;SDS011;2730;51.512;7.504;2023-08-31T12:46:21;1.10;;;1.00;;
5414;SDS011;2730;51.512;7.504;2023-08-31T12:48:48;1.60;;;1.23;;
5414;SDS011;2730;51.512;7.504;2023-08-31T12:51:14;1.63;;;1.17;;
5414;SDS011;2730;51.512;7.504;2023-08-31T12:53:41;2.47;;;1.20;;
5414;SDS011;2730;51.512;7.504;2023-08-31T12:56:08;7.73;;;1.70;;
5414;SDS011;2730;51.512;7.504;2023-08-31T12:58:35;1.87;;;1.33;;
5414;SDS011;2730;51.512;7.504;2023-08-31T13:01:05;1.93;;;1.17;;
5414;SDS011;2730;51.512;7.504;2023-08-31T13:03:33;2.30;;;1.30;;
5414;SDS011;2730;51.512;7.504;2023-08-31T13:06:00;2.83;;;1.30;;
5414;SDS011;2730;51.512;7.504;2023-08-31T13:08:26;3.30;;;1.63;;
5414;SDS011;2730;51.512;7.504;2023-08-31T13:10:54;1.30;;;1.20;;
5414;SDS011;2730;51.512;7.504;2023-08-31T13:13:21;3.43;;;1.00;;
5414;SDS011;2730;51.512;7.504;2023-08-31T13:15:48;1.73;;;1.00;;
5414;SDS011;2730;51.512;7.504;2023-08-31T13:18:16;2.87;;;1.10;;
5414;SDS011;2730;51.512;7.504;2023-08-31T13:20:48;3.47;;;1.17;;
5414;SDS011;2730;51.512;7.504;2023-08-31T13:23:15;1.03;;;1.00;;
5414;SDS011;2730;51.512;7.504;2023-08-31T13:25:43;3.37;;;1.10;;
5414;SDS011;2730;51.512;7.504;2023-08-31T13:28:09;1.60;;;1.50;;
5414;SDS011;2730;51.512;7.504;2023-08-31T13:30:36;2.07;;;1.23;;
5414;SDS011;2730;51.512;7.504;2023-08-31T13:33:03;2.30;;;1.10;;
5414;SDS011;2730;51.512;7.504;2023-08-31T13:35:32;1.53;;;1.20;;
5414;SDS011;2730;51.512;7.504;2023-08-31T13:37:59;1.60;;;1.50;;
5414;SDS011;2730;51.512;7.504;2023-08-31T13:40:26;1.67;;;1.57;;
5414;SDS011;2730;51.512;7.504;2023-08-31T13:42:54;1.10;;;1.00;;
5414;SDS011;2730;51.512;7.504;2023-08-31T13:45:24;2.50;;;1.20;;
5414;SDS011;2730;51.512;7.504;2023-08-31T13:47:51;1.73;;;1.63;;
5414;SDS011;2730;51.512;7.504;2023-08-31T13:50:18;1.30;;;1.20;;
5414;SDS011;2730;51.512;7.504;2023-08-31T13:52:46;5.13;;;1.10;;
5414;SDS011;2730;51.512;7.504;2023-08-31T13:55:13;1.40;;;1.20;;
5414;SDS011;2730;51.512;7.504;2023-08-31T14:00:08;4.03;;;1.60;;
5414;SDS011;2730;51.512;7.504;2023-08-31T14:02:36;1.10;;;1.10;;
5414;SDS011;2730;51.512;7.504;2023-08-31T14:05:04;1.47;;;1.37;;
5414;SDS011;2730;51.512;7.504;2023-08-31T14:07:31;1.63;;;1.50;;
5414;SDS011;2730;51.512;7.504;2023-08-31T14:09:59;1.97;;;1.43;;
5414;SDS011;2730;51.512;7.504;2023-08-31T14:12:26;6.13;;;1.90;;
5414;SDS011;2730;51.512;7.504;2023-08-31T14:14:53;2.07;;;1.43;;
5414;SDS011;2730;51.512;7.504;2023-08-31T14:17:20;3.00;;;1.60;;
5414;SDS011;2730;51.512;7.504;2023-08-31T14:19:47;2.93;;;1.50;;
5414;SDS011;2730;51.512;7.504;2023-08-31T14:22:14;2.10;;;1.60;;
5414;SDS011;2730;51.512;7.504;2023-08-31T14:24:41;1.37;;;1.27;;
5414;SDS011;2730;51.512;7.504;2023-08-31T14:27:09;1.60;;;1.50;;
5414;SDS011;2730;51.512;7.504;2023-08-31T14:29:36;1.50;;;1.37;;
5414;SDS011;2730;51.512;7.504;2023-08-31T14:32:03;1.50;;;1.40;;
5414;SDS011;2730;51.512;7.504;2023-08-31T14:34:30;1.53;;;1.20;;
5414;SDS011;2730;51.512;7.504;2023-08-31T14:36:57;2.93;;;1.50;;
5414;SDS011;2730;51.512;7.504;2023-08-31T14:39:25;3.10;;;1.60;;
5414;SDS011;2730;51.512;7.504;2023-08-31T14:41:54;2.53;;;1.60;;
5414;SDS011;2730;51.512;7.504;2023-08-31T14:44:23;2.33;;;1.77;;
5414;SDS011;2730;51.512;7.504;2023-08-31T14:46:51;2.90;;;1.83;;
5414;SDS011;2730;51.512;7.504;2023-08-31T14:49:18;1.60;;;1.50;;
5414;SDS011;2730;51.512;7.504;2023-08-31T14:51:50;2.70;;;1.53;;
5414;SDS011;2730;51.512;7.504;2023-08-31T14:54:16;1.90;;;1.60;;
5414;SDS011;2730;51.512;7.504;2023-08-31T14:56:43;4.03;;;1.43;;
5414;SDS011;2730;51.512;7.504;2023-08-31T14:59:10;1.83;;;1.67;;
5414;SDS011;2730;51.512;7.504;2023-08-31T15:01:38;2.80;;;1.43;;
5414;SDS011;2730;51.512;7.504;2023-08-31T15:04:05;8.97;;;2.13;;
5414;SDS011;2730;51.512;7.504;2023-08-31T15:06:31;3.30;;;3.00;;
5414;SDS011;2730;51.512;7.504;2023-08-31T15:08:58;4.37;;;3.13;;
5414;SDS011;2730;51.512;7.504;2023-08-31T15:11:25;10.30;;;4.00;;
5414;SDS011;2730;51.512;7.504;2023-08-31T15:13:52;5.93;;;3.97;;
5414;SDS011;2730;51.512;7.504;2023-08-31T15:16:19;16.50;;;3.70;;
5414;SDS011;2730;51.512;7.504;2023-08-31T15:18:48;4.90;;;4.33;;
5414;SDS011;2730;51.512;7.504;2023-08-31T15:21:14;6.50;;;4.37;;
5414;SDS011;2730;51.512;7.504;2023-08-31T15:23:42;10.03;;;5.63;;
5414;SDS011;2730;51.512;7.504;2023-08-31T15:26:09;7.63;;;5.30;;